Pontardulais, United Kingdom
Current Conditions -  °F | °C
As of 5:50 PM on Thursday 30 Oct 2014 (Local Time) from EGOP Reporting Station
Broken Clouds Broken Clouds  
Wind Chill: 15°   Ceiling: 1300
Heat Index: 15°   Visibility: 3mi
Dew Point: 14°   Wind: 15mph
Humidity: 94%   Direction: 180°S
Pressure: 29.97"   Gusts: NA
Location:  51.71°N, 4.04°W
Report Text: EGOP 301750Z AUTO 18013KT 5000 // BKN013/// BKN036/// 15/14 Q1015
Loading
Personal Weather Stations






























Interactive Weather Map
Tropical Storm Tracking
New forecast layout! Learn more

10-Day Weather Forecast

Advertisements
Track Severe Weather on mobile